sensor_id;sensor_type;location;lat;lon;timestamp;pressure;altitude;pressure_sealevel;temperature;humidity
4024;BME280;2026;51.002;13.668;2024-03-08T00:01:44;99672.06;;;1.47;64.60
4024;BME280;2026;51.002;13.668;2024-03-08T00:06:48;99676.44;;;1.68;64.15
4024;BME280;2026;51.002;13.668;2024-03-08T00:11:52;99674.59;;;1.59;64.19
4024;BME280;2026;51.002;13.668;2024-03-08T00:16:57;99668.03;;;1.43;64.78
4024;BME280;2026;51.002;13.668;2024-03-08T00:22:00;99664.91;;;1.28;65.34
4024;BME280;2026;51.002;13.668;2024-03-08T00:27:03;99663.84;;;1.31;65.32
4024;BME280;2026;51.002;13.668;2024-03-08T00:32:09;99665.38;;;1.34;65.07
4024;BME280;2026;51.002;13.668;2024-03-08T00:37:12;99667.03;;;1.35;65.24
4024;BME280;2026;51.002;13.668;2024-03-08T00:42:16;99665.47;;;1.11;65.92
4024;BME280;2026;51.002;13.668;2024-03-08T00:47:21;99663.56;;;1.13;66.10
4024;BME280;2026;51.002;13.668;2024-03-08T00:52:24;99656.75;;;0.68;67.31
4024;BME280;2026;51.002;13.668;2024-03-08T00:57:27;99657.84;;;0.98;66.49
4024;BME280;2026;51.002;13.668;2024-03-08T01:02:32;99652.53;;;0.88;66.77
4024;BME280;2026;51.002;13.668;2024-03-08T01:07:37;99654.47;;;0.75;67.07
4024;BME280;2026;51.002;13.668;2024-03-08T01:12:40;99653.91;;;0.71;67.25
4024;BME280;2026;51.002;13.668;2024-03-08T01:17:45;99630.38;;;0.73;66.88
4024;BME280;2026;51.002;13.668;2024-03-08T01:22:49;99645.88;;;0.63;67.35
4024;BME280;2026;51.002;13.668;2024-03-08T01:27:52;99630.41;;;0.50;68.15
4024;BME280;2026;51.002;13.668;2024-03-08T01:32:57;99616.69;;;0.60;67.31
4024;BME280;2026;51.002;13.668;2024-03-08T01:38:00;99616.81;;;0.58;67.31
4024;BME280;2026;51.002;13.668;2024-03-08T01:43:22;99612.47;;;0.47;67.73
4024;BME280;2026;51.002;13.668;2024-03-08T01:48:30;99604.56;;;0.26;68.17
4024;BME280;2026;51.002;13.668;2024-03-08T01:53:34;99596.31;;;0.32;67.97
4024;BME280;2026;51.002;13.668;2024-03-08T01:58:38;99592.66;;;0.24;68.07
4024;BME280;2026;51.002;13.668;2024-03-08T02:03:45;99595.84;;;0.27;68.30
4024;BME280;2026;51.002;13.668;2024-03-08T02:08:48;99588.78;;;-0.05;69.05
4024;BME280;2026;51.002;13.668;2024-03-08T02:13:51;99582.63;;;-0.04;68.95
4024;BME280;2026;51.002;13.668;2024-03-08T02:18:55;99580.72;;;0.10;68.75
4024;BME280;2026;51.002;13.668;2024-03-08T02:24:00;99575.44;;;0.00;68.63
4024;BME280;2026;51.002;13.668;2024-03-08T02:29:04;99572.94;;;-0.47;70.89
4024;BME280;2026;51.002;13.668;2024-03-08T02:34:07;99567.53;;;-0.32;69.85
4024;BME280;2026;51.002;13.668;2024-03-08T02:39:12;99566.47;;;-0.30;69.30
4024;BME280;2026;51.002;13.668;2024-03-08T02:44:15;99560.78;;;-0.35;69.69
4024;BME280;2026;51.002;13.668;2024-03-08T02:49:18;99560.31;;;-0.40;70.37
4024;BME280;2026;51.002;13.668;2024-03-08T02:54:22;99555.03;;;-0.61;70.87
4024;BME280;2026;51.002;13.668;2024-03-08T02:59:25;99554.41;;;-0.53;70.93
4024;BME280;2026;51.002;13.668;2024-03-08T03:04:28;99548.06;;;-0.61;70.75
4024;BME280;2026;51.002;13.668;2024-03-08T03:09:33;99552.88;;;-0.67;70.77
4024;BME280;2026;51.002;13.668;2024-03-08T03:14:36;99549.34;;;-0.55;70.23
4024;BME280;2026;51.002;13.668;2024-03-08T03:19:40;99548.25;;;-0.75;71.29
4024;BME280;2026;51.002;13.668;2024-03-08T03:24:45;99548.84;;;-0.83;71.34
4024;BME280;2026;51.002;13.668;2024-03-08T03:29:48;99540.69;;;-1.01;71.98
4024;BME280;2026;51.002;13.668;2024-03-08T03:34:53;99541.19;;;-0.84;70.98
4024;BME280;2026;51.002;13.668;2024-03-08T03:39:58;99540.94;;;-0.81;70.98
4024;BME280;2026;51.002;13.668;2024-03-08T03:45:01;99540.19;;;-0.95;71.33
4024;BME280;2026;51.002;13.668;2024-03-08T03:50:06;99533.41;;;-0.84;71.14
4024;BME280;2026;51.002;13.668;2024-03-08T03:55:13;99536.59;;;-0.81;71.10
4024;BME280;2026;51.002;13.668;2024-03-08T04:00:16;99536.09;;;-0.97;71.67
4024;BME280;2026;51.002;13.668;2024-03-08T04:05:19;99534.38;;;-1.09;71.60
4024;BME280;2026;51.002;13.668;2024-03-08T04:10:24;99526.75;;;-1.00;71.75
4024;BME280;2026;51.002;13.668;2024-03-08T04:15:27;99528.72;;;-1.15;71.69
4024;BME280;2026;51.002;13.668;2024-03-08T04:20:29;99522.94;;;-1.18;71.53
4024;BME280;2026;51.002;13.668;2024-03-08T04:25:34;99533.97;;;-1.27;72.15
4024;BME280;2026;51.002;13.668;2024-03-08T04:30:37;99530.28;;;-1.36;72.92
4024;BME280;2026;51.002;13.668;2024-03-08T04:35:41;99527.19;;;-1.17;71.75
4024;BME280;2026;51.002;13.668;2024-03-08T04:40:45;99519.38;;;-1.28;72.39
4024;BME280;2026;51.002;13.668;2024-03-08T04:45:48;99509.22;;;-1.32;72.29
4024;BME280;2026;51.002;13.668;2024-03-08T04:50:51;99518.28;;;-1.37;72.70
4024;BME280;2026;51.002;13.668;2024-03-08T04:55:56;99515.16;;;-1.54;72.85
4024;BME280;2026;51.002;13.668;2024-03-08T05:01:00;99521.66;;;-1.48;72.68
4024;BME280;2026;51.002;13.668;2024-03-08T05:06:03;99510.25;;;-1.45;72.23
4024;BME280;2026;51.002;13.668;2024-03-08T05:11:07;99506.06;;;-1.59;72.66
4024;BME280;2026;51.002;13.668;2024-03-08T05:16:11;99503.06;;;-1.42;72.51
4024;BME280;2026;51.002;13.668;2024-03-08T05:21:17;99511.00;;;-1.56;72.84
4024;BME280;2026;51.002;13.668;2024-03-08T05:26:23;99505.34;;;-1.61;73.18
4024;BME280;2026;51.002;13.668;2024-03-08T05:31:26;99491.28;;;-1.70;73.07
4024;BME280;2026;51.002;13.668;2024-03-08T05:36:30;99497.06;;;-1.67;73.11
4024;BME280;2026;51.002;13.668;2024-03-08T05:41:35;99499.63;;;-1.54;73.31
4024;BME280;2026;51.002;13.668;2024-03-08T05:46:38;99495.91;;;-1.62;73.93
4024;BME280;2026;51.002;13.668;2024-03-08T05:51:41;99482.34;;;-1.42;72.94
4024;BME280;2026;51.002;13.668;2024-03-08T05:56:45;99483.97;;;-1.41;72.88
4024;BME280;2026;51.002;13.668;2024-03-08T06:01:50;99483.84;;;-1.51;73.14
4024;BME280;2026;51.002;13.668;2024-03-08T06:06:53;99498.25;;;-1.35;72.87
4024;BME280;2026;51.002;13.668;2024-03-08T06:11:59;99500.84;;;-1.35;72.60
4024;BME280;2026;51.002;13.668;2024-03-08T06:17:03;99500.22;;;-1.03;72.25
4024;BME280;2026;51.002;13.668;2024-03-08T06:22:08;99501.59;;;-0.41;70.88
4024;BME280;2026;51.002;13.668;2024-03-08T06:27:13;99494.28;;;0.08;69.93
4024;BME280;2026;51.002;13.668;2024-03-08T06:32:16;99496.75;;;0.21;69.90
4024;BME280;2026;51.002;13.668;2024-03-08T06:37:20;99487.75;;;0.57;68.63
4024;BME280;2026;51.002;13.668;2024-03-08T06:42:25;99476.16;;;0.82;68.27
4024;BME280;2026;51.002;13.668;2024-03-08T06:47:28;99486.78;;;0.37;69.92
4024;BME280;2026;51.002;13.668;2024-03-08T06:52:31;99480.53;;;0.82;68.77
4024;BME280;2026;51.002;13.668;2024-03-08T06:57:36;99475.91;;;0.85;68.68
4024;BME280;2026;51.002;13.668;2024-03-08T07:02:40;99483.69;;;1.06;68.08
4024;BME280;2026;51.002;13.668;2024-03-08T07:07:43;99474.69;;;1.41;67.78
4024;BME280;2026;51.002;13.668;2024-03-08T07:12:47;99466.16;;;1.80;66.97
4024;BME280;2026;51.002;13.668;2024-03-08T07:17:50;99466.13;;;1.70;67.36
4024;BME280;2026;51.002;13.668;2024-03-08T07:22:54;99461.41;;;2.14;65.92
4024;BME280;2026;51.002;13.668;2024-03-08T07:27:59;99463.59;;;1.99;66.29
4024;BME280;2026;51.002;13.668;2024-03-08T07:33:02;99465.44;;;1.27;68.83
4024;BME280;2026;51.002;13.668;2024-03-08T07:38:06;99458.22;;;1.81;67.54
4024;BME280;2026;51.002;13.668;2024-03-08T07:43:11;99454.69;;;2.80;66.69
4024;BME280;2026;51.002;13.668;2024-03-08T07:48:14;99454.69;;;3.18;65.43
4024;BME280;2026;51.002;13.668;2024-03-08T07:53:18;99448.69;;;3.45;63.46
4024;BME280;2026;51.002;13.668;2024-03-08T07:58:22;99444.03;;;3.94;64.02
4024;BME280;2026;51.002;13.668;2024-03-08T08:03:25;99436.19;;;4.12;61.96
4024;BME280;2026;51.002;13.668;2024-03-08T08:08:28;99437.81;;;4.13;62.64
4024;BME280;2026;51.002;13.668;2024-03-08T08:13:35;99439.16;;;3.81;63.37
4024;BME280;2026;51.002;13.668;2024-03-08T08:18:38;99433.94;;;3.99;62.66
4024;BME280;2026;51.002;13.668;2024-03-08T08:23:41;99428.50;;;3.65;63.50
4024;BME280;2026;51.002;13.668;2024-03-08T08:28:45;99424.53;;;2.95;64.58
4024;BME280;2026;51.002;13.668;2024-03-08T08:33:48;99431.97;;;3.38;63.53
4024;BME280;2026;51.002;13.668;2024-03-08T08:38:51;99421.00;;;3.80;62.96
4024;BME280;2026;51.002;13.668;2024-03-08T08:43:57;99430.13;;;4.30;60.89
4024;BME280;2026;51.002;13.668;2024-03-08T08:49:16;99415.41;;;3.93;61.65
4024;BME280;2026;51.002;13.668;2024-03-08T08:54:22;99422.66;;;4.17;61.80
4024;BME280;2026;51.002;13.668;2024-03-08T08:59:28;99406.22;;;4.24;61.79
4024;BME280;2026;51.002;13.668;2024-03-08T09:04:31;99396.94;;;4.74;60.70
4024;BME280;2026;51.002;13.668;2024-03-08T09:09:40;99392.16;;;4.43;60.54
4024;BME280;2026;51.002;13.668;2024-03-08T09:14:47;99390.19;;;5.32;59.48
4024;BME280;2026;51.002;13.668;2024-03-08T09:19:50;99373.19;;;6.28;57.78
4024;BME280;2026;51.002;13.668;2024-03-08T09:24:53;99382.13;;;5.77;57.44
4024;BME280;2026;51.002;13.668;2024-03-08T09:29:58;99371.66;;;5.85;56.82
4024;BME280;2026;51.002;13.668;2024-03-08T09:35:01;99356.00;;;6.18;56.78
4024;BME280;2026;51.002;13.668;2024-03-08T09:40:05;99364.97;;;6.56;55.05
4024;BME280;2026;51.002;13.668;2024-03-08T09:45:13;99361.63;;;5.72;57.71
4024;BME280;2026;51.002;13.668;2024-03-08T09:50:17;99355.66;;;6.21;56.20
4024;BME280;2026;51.002;13.668;2024-03-08T09:55:21;99348.59;;;6.05;56.38
4024;BME280;2026;51.002;13.668;2024-03-08T10:00:26;99349.84;;;6.67;54.71
4024;BME280;2026;51.002;13.668;2024-03-08T10:05:30;99349.06;;;6.58;54.79
4024;BME280;2026;51.002;13.668;2024-03-08T10:10:34;99338.09;;;6.46;56.23
4024;BME280;2026;51.002;13.668;2024-03-08T10:15:39;99342.69;;;6.52;55.32
4024;BME280;2026;51.002;13.668;2024-03-08T10:20:42;99325.94;;;6.37;56.56
4024;BME280;2026;51.002;13.668;2024-03-08T10:25:45;99322.50;;;6.36;55.23
4024;BME280;2026;51.002;13.668;2024-03-08T10:30:49;99328.38;;;6.63;54.80
4024;BME280;2026;51.002;13.668;2024-03-08T10:35:54;99311.78;;;6.71;54.25
4024;BME280;2026;51.002;13.668;2024-03-08T10:40:58;99319.44;;;7.28;53.26
4024;BME280;2026;51.002;13.668;2024-03-08T10:46:13;99303.44;;;7.07;53.61
4024;BME280;2026;51.002;13.668;2024-03-08T10:51:20;99297.38;;;7.37;52.11
4024;BME280;2026;51.002;13.668;2024-03-08T10:56:23;99301.50;;;7.63;50.91
4024;BME280;2026;51.002;13.668;2024-03-08T11:01:30;99301.19;;;7.81;49.94
4024;BME280;2026;51.002;13.668;2024-03-08T11:06:42;99299.72;;;7.55;51.69
4024;BME280;2026;51.002;13.668;2024-03-08T11:11:47;99289.72;;;7.74;51.12
4024;BME280;2026;51.002;13.668;2024-03-08T11:16:51;99278.09;;;7.68;52.53
4024;BME280;2026;51.002;13.668;2024-03-08T11:21:58;99262.56;;;7.35;52.92
4024;BME280;2026;51.002;13.668;2024-03-08T11:27:03;99263.25;;;7.52;52.26
4024;BME280;2026;51.002;13.668;2024-03-08T11:32:11;99265.00;;;7.37;52.26
4024;BME280;2026;51.002;13.668;2024-03-08T11:37:16;99256.97;;;7.62;51.67
4024;BME280;2026;51.002;13.668;2024-03-08T11:42:20;99251.38;;;8.03;50.47
4024;BME280;2026;51.002;13.668;2024-03-08T11:47:25;99229.50;;;8.32;50.77
4024;BME280;2026;51.002;13.668;2024-03-08T11:52:28;99238.66;;;7.45;50.82
4024;BME280;2026;51.002;13.668;2024-03-08T11:57:31;99220.75;;;7.87;50.45
4024;BME280;2026;51.002;13.668;2024-03-08T12:02:36;99205.19;;;8.30;49.53
4024;BME280;2026;51.002;13.668;2024-03-08T12:07:40;99200.28;;;8.27;49.31
4024;BME280;2026;51.002;13.668;2024-03-08T12:12:44;99197.28;;;8.75;48.01
4024;BME280;2026;51.002;13.668;2024-03-08T12:17:50;99190.84;;;8.03;49.69
4024;BME280;2026;51.002;13.668;2024-03-08T12:22:55;99193.47;;;8.32;49.63
4024;BME280;2026;51.002;13.668;2024-03-08T12:28:07;99182.66;;;8.57;48.33
4024;BME280;2026;51.002;13.668;2024-03-08T12:33:13;99183.66;;;8.71;47.68
4024;BME280;2026;51.002;13.668;2024-03-08T12:38:16;99164.38;;;8.49;48.42
4024;BME280;2026;51.002;13.668;2024-03-08T12:43:19;99165.50;;;8.61;47.99
4024;BME280;2026;51.002;13.668;2024-03-08T12:48:24;99154.53;;;8.94;47.95
4024;BME280;2026;51.002;13.668;2024-03-08T12:53:27;99144.00;;;8.58;47.03
4024;BME280;2026;51.002;13.668;2024-03-08T12:58:30;99156.34;;;8.94;46.99
4024;BME280;2026;51.002;13.668;2024-03-08T13:03:35;99126.97;;;8.75;48.52
4024;BME280;2026;51.002;13.668;2024-03-08T13:08:38;99119.75;;;9.27;47.15
4024;BME280;2026;51.002;13.668;2024-03-08T13:13:41;99121.44;;;9.13;47.65
4024;BME280;2026;51.002;13.668;2024-03-08T13:18:46;99107.31;;;9.42;47.55
4024;BME280;2026;51.002;13.668;2024-03-08T13:23:54;99106.09;;;9.17;47.75
4024;BME280;2026;51.002;13.668;2024-03-08T13:28:57;99099.06;;;9.24;48.61
4024;BME280;2026;51.002;13.668;2024-03-08T13:34:02;99101.69;;;9.24;48.37
4024;BME280;2026;51.002;13.668;2024-03-08T13:39:07;99087.63;;;9.38;48.10
4024;BME280;2026;51.002;13.668;2024-03-08T13:44:16;99082.44;;;9.52;48.25
4024;BME280;2026;51.002;13.668;2024-03-08T13:49:21;99083.84;;;9.54;47.60
4024;BME280;2026;51.002;13.668;2024-03-08T13:54:24;99077.69;;;9.40;47.92
4024;BME280;2026;51.002;13.668;2024-03-08T13:59:28;99072.03;;;9.44;48.56
4024;BME280;2026;51.002;13.668;2024-03-08T14:04:32;99068.31;;;9.38;47.97
4024;BME280;2026;51.002;13.668;2024-03-08T14:09:36;99061.75;;;9.27;48.56
4024;BME280;2026;51.002;13.668;2024-03-08T14:14:44;99055.09;;;9.31;48.52
4024;BME280;2026;51.002;13.668;2024-03-08T14:19:49;99048.72;;;9.47;48.52
4024;BME280;2026;51.002;13.668;2024-03-08T14:24:52;99045.97;;;9.62;48.21
4024;BME280;2026;51.002;13.668;2024-03-08T14:29:57;99042.53;;;9.33;48.59
4024;BME280;2026;51.002;13.668;2024-03-08T14:35:03;99054.88;;;9.61;48.21
4024;BME280;2026;51.002;13.668;2024-03-08T14:40:07;99033.28;;;9.44;48.94
4024;BME280;2026;51.002;13.668;2024-03-08T14:45:10;99022.72;;;9.44;48.50
4024;BME280;2026;51.002;13.668;2024-03-08T14:50:15;99021.34;;;9.55;49.31
4024;BME280;2026;51.002;13.668;2024-03-08T14:55:19;99017.38;;;9.66;48.12
4024;BME280;2026;51.002;13.668;2024-03-08T15:00:24;99016.31;;;9.53;48.66
4024;BME280;2026;51.002;13.668;2024-03-08T15:05:36;99026.31;;;9.36;49.32
4024;BME280;2026;51.002;13.668;2024-03-08T15:10:44;99021.44;;;9.33;49.42
4024;BME280;2026;51.002;13.668;2024-03-08T15:15:47;99007.63;;;9.31;49.36
4024;BME280;2026;51.002;13.668;2024-03-08T15:20:57;99007.47;;;9.39;49.80
4024;BME280;2026;51.002;13.668;2024-03-08T15:26:00;98999.44;;;9.19;50.11
4024;BME280;2026;51.002;13.668;2024-03-08T15:31:04;98982.88;;;9.26;50.23
4024;BME280;2026;51.002;13.668;2024-03-08T15:36:09;98988.53;;;9.22;50.72
4024;BME280;2026;51.002;13.668;2024-03-08T15:41:13;98991.91;;;8.88;50.87
4024;BME280;2026;51.002;13.668;2024-03-08T15:46:16;98989.81;;;9.05;50.33
4024;BME280;2026;51.002;13.668;2024-03-08T15:51:21;98989.28;;;8.88;50.96
4024;BME280;2026;51.002;13.668;2024-03-08T15:56:24;98987.81;;;8.79;51.19
4024;BME280;2026;51.002;13.668;2024-03-08T16:01:28;98985.69;;;8.67;51.60
4024;BME280;2026;51.002;13.668;2024-03-08T16:06:34;98969.41;;;8.42;52.63
4024;BME280;2026;51.002;13.668;2024-03-08T16:11:39;98979.31;;;8.40;52.88
4024;BME280;2026;51.002;13.668;2024-03-08T16:16:42;98965.66;;;8.30;53.28
4024;BME280;2026;51.002;13.668;2024-03-08T16:21:47;98960.59;;;7.92;54.56
4024;BME280;2026;51.002;13.668;2024-03-08T16:26:50;98967.50;;;7.93;54.67
4024;BME280;2026;51.002;13.668;2024-03-08T16:31:54;98961.22;;;7.94;54.42
4024;BME280;2026;51.002;13.668;2024-03-08T16:36:58;98959.41;;;7.58;55.50
4024;BME280;2026;51.002;13.668;2024-03-08T16:42:04;98959.66;;;7.63;55.37
4024;BME280;2026;51.002;13.668;2024-03-08T16:47:09;98954.25;;;7.35;56.84
4024;BME280;2026;51.002;13.668;2024-03-08T16:52:14;98957.41;;;7.30;56.58
4024;BME280;2026;51.002;13.668;2024-03-08T16:57:17;98951.44;;;7.22;57.03
4024;BME280;2026;51.002;13.668;2024-03-08T17:02:20;98958.13;;;7.09;57.38
4024;BME280;2026;51.002;13.668;2024-03-08T17:07:24;98959.16;;;6.85;58.24
4024;BME280;2026;51.002;13.668;2024-03-08T17:12:28;98954.63;;;6.41;59.97
4024;BME280;2026;51.002;13.668;2024-03-08T17:17:30;98959.63;;;6.51;59.70
4024;BME280;2026;51.002;13.668;2024-03-08T17:22:35;98962.13;;;6.67;59.33
4024;BME280;2026;51.002;13.668;2024-03-08T17:27:38;98955.13;;;6.36;60.44
4024;BME280;2026;51.002;13.668;2024-03-08T17:32:41;98954.69;;;6.33;60.50
4024;BME280;2026;51.002;13.668;2024-03-08T17:37:46;98954.63;;;6.18;61.03
4024;BME280;2026;51.002;13.668;2024-03-08T17:42:53;98948.31;;;5.96;61.74
4024;BME280;2026;51.002;13.668;2024-03-08T17:47:56;98945.56;;;6.20;60.90
4024;BME280;2026;51.002;13.668;2024-03-08T17:53:00;98947.53;;;5.87;62.15
4024;BME280;2026;51.002;13.668;2024-03-08T17:58:05;98946.03;;;6.01;62.12
4024;BME280;2026;51.002;13.668;2024-03-08T18:03:08;98943.97;;;5.80;62.92
4024;BME280;2026;51.002;13.668;2024-03-08T18:08:14;98945.31;;;5.76;63.18
4024;BME280;2026;51.002;13.668;2024-03-08T18:13:20;98939.84;;;5.85;63.18
4024;BME280;2026;51.002;13.668;2024-03-08T18:18:23;98936.25;;;5.86;63.24
4024;BME280;2026;51.002;13.668;2024-03-08T18:23:29;98930.19;;;5.86;63.36
4024;BME280;2026;51.002;13.668;2024-03-08T18:28:32;98925.84;;;5.70;64.22
4024;BME280;2026;51.002;13.668;2024-03-08T18:33:35;98930.66;;;5.58;64.45
4024;BME280;2026;51.002;13.668;2024-03-08T18:38:39;98928.16;;;5.25;66.05
4024;BME280;2026;51.002;13.668;2024-03-08T18:43:42;98931.16;;;5.53;65.04
4024;BME280;2026;51.002;13.668;2024-03-08T18:48:45;98919.00;;;5.61;64.78
4024;BME280;2026;51.002;13.668;2024-03-08T18:53:50;98920.00;;;5.20;66.42
4024;BME280;2026;51.002;13.668;2024-03-08T18:58:53;98912.63;;;5.24;66.74
4024;BME280;2026;51.002;13.668;2024-03-08T19:03:57;98908.38;;;5.14;66.95
4024;BME280;2026;51.002;13.668;2024-03-08T19:09:01;98903.50;;;5.43;66.11
4024;BME280;2026;51.002;13.668;2024-03-08T19:14:06;98892.59;;;5.31;66.21
4024;BME280;2026;51.002;13.668;2024-03-08T19:19:13;98899.16;;;5.35;66.25
4024;BME280;2026;51.002;13.668;2024-03-08T19:24:18;98899.31;;;5.33;66.33
4024;BME280;2026;51.002;13.668;2024-03-08T19:29:20;98891.03;;;5.22;67.08
4024;BME280;2026;51.002;13.668;2024-03-08T19:34:26;98891.16;;;5.28;67.08
4024;BME280;2026;51.002;13.668;2024-03-08T19:39:31;98886.56;;;5.30;66.62
4024;BME280;2026;51.002;13.668;2024-03-08T19:44:34;98886.00;;;5.43;65.19
4024;BME280;2026;51.002;13.668;2024-03-08T19:49:37;98887.53;;;5.29;65.05
4024;BME280;2026;51.002;13.668;2024-03-08T19:54:43;98890.00;;;5.23;64.43
4024;BME280;2026;51.002;13.668;2024-03-08T19:59:46;98890.06;;;5.06;64.89
4024;BME280;2026;51.002;13.668;2024-03-08T20:04:49;98883.06;;;4.98;65.12
4024;BME280;2026;51.002;13.668;2024-03-08T20:09:54;98882.13;;;4.75;65.80
4024;BME280;2026;51.002;13.668;2024-03-08T20:14:57;98874.28;;;4.67;65.68
4024;BME280;2026;51.002;13.668;2024-03-08T20:20:01;98891.16;;;4.64;65.75
4024;BME280;2026;51.002;13.668;2024-03-08T20:25:06;98878.25;;;4.46;66.23
4024;BME280;2026;51.002;13.668;2024-03-08T20:30:15;98893.63;;;4.49;65.76
4024;BME280;2026;51.002;13.668;2024-03-08T20:35:24;98881.03;;;4.53;65.26
4024;BME280;2026;51.002;13.668;2024-03-08T20:40:29;98878.59;;;4.43;65.16
4024;BME280;2026;51.002;13.668;2024-03-08T20:45:39;98871.75;;;4.34;65.86
4024;BME280;2026;51.002;13.668;2024-03-08T20:50:42;98875.31;;;4.16;65.96
4024;BME280;2026;51.002;13.668;2024-03-08T20:55:47;98865.03;;;4.06;66.74
4024;BME280;2026;51.002;13.668;2024-03-08T21:00:52;98854.25;;;4.18;66.40
4024;BME280;2026;51.002;13.668;2024-03-08T21:05:57;98855.72;;;4.20;65.96
4024;BME280;2026;51.002;13.668;2024-03-08T21:11:03;98852.44;;;4.18;66.29
4024;BME280;2026;51.002;13.668;2024-03-08T21:16:06;98850.97;;;3.83;67.33
4024;BME280;2026;51.002;13.668;2024-03-08T21:21:11;98843.94;;;3.92;67.08
4024;BME280;2026;51.002;13.668;2024-03-08T21:26:15;98841.97;;;3.85;67.00
4024;BME280;2026;51.002;13.668;2024-03-08T21:31:19;98838.22;;;4.04;66.39
4024;BME280;2026;51.002;13.668;2024-03-08T21:36:25;98834.78;;;3.79;67.08
4024;BME280;2026;51.002;13.668;2024-03-08T21:41:30;98829.25;;;3.82;66.69
4024;BME280;2026;51.002;13.668;2024-03-08T21:46:34;98820.41;;;3.83;66.91
4024;BME280;2026;51.002;13.668;2024-03-08T21:51:37;98807.34;;;3.92;66.47
4024;BME280;2026;51.002;13.668;2024-03-08T21:56:49;98805.72;;;3.91;66.37
4024;BME280;2026;51.002;13.668;2024-03-08T22:01:52;98802.28;;;3.98;66.11
4024;BME280;2026;51.002;13.668;2024-03-08T22:06:55;98791.50;;;3.77;66.50
4024;BME280;2026;51.002;13.668;2024-03-08T22:11:59;98778.44;;;3.68;66.99
4024;BME280;2026;51.002;13.668;2024-03-08T22:17:05;98772.06;;;3.71;66.96
4024;BME280;2026;51.002;13.668;2024-03-08T22:22:09;98774.38;;;3.74;66.56
4024;BME280;2026;51.002;13.668;2024-03-08T22:27:13;98767.66;;;3.80;66.63
4024;BME280;2026;51.002;13.668;2024-03-08T22:32:17;98763.75;;;3.51;67.63
4024;BME280;2026;51.002;13.668;2024-03-08T22:37:22;98764.22;;;3.55;67.59
4024;BME280;2026;51.002;13.668;2024-03-08T22:42:27;98757.03;;;3.48;67.74
4024;BME280;2026;51.002;13.668;2024-03-08T22:47:30;98747.72;;;3.38;67.97
4024;BME280;2026;51.002;13.668;2024-03-08T22:52:34;98744.59;;;3.34;68.33
4024;BME280;2026;51.002;13.668;2024-03-08T22:57:40;98736.63;;;3.44;68.14
4024;BME280;2026;51.002;13.668;2024-03-08T23:02:44;98735.50;;;3.46;67.61
4024;BME280;2026;51.002;13.668;2024-03-08T23:07:48;98729.09;;;3.49;67.80
4024;BME280;2026;51.002;13.668;2024-03-08T23:12:52;98721.94;;;3.35;68.08
4024;BME280;2026;51.002;13.668;2024-03-08T23:17:55;98718.28;;;3.11;69.29
4024;BME280;2026;51.002;13.668;2024-03-08T23:22:59;98715.38;;;3.14;68.61
4024;BME280;2026;51.002;13.668;2024-03-08T23:28:08;98711.66;;;3.25;68.49
4024;BME280;2026;51.002;13.668;2024-03-08T23:33:14;98712.59;;;3.24;68.74
4024;BME280;2026;51.002;13.668;2024-03-08T23:38:17;98712.78;;;3.39;68.05
4024;BME280;2026;51.002;13.668;2024-03-08T23:43:22;98709.84;;;3.33;68.12
4024;BME280;2026;51.002;13.668;2024-03-08T23:48:27;98704.78;;;3.32;68.18
4024;BME280;2026;51.002;13.668;2024-03-08T23:53:30;98699.41;;;3.42;68.13
4024;BME280;2026;51.002;13.668;2024-03-08T23:58:35;98700.91;;;3.44;67.83
